Time;durP1;ratioP1;P1;durP2;ratioP2;P2;SDS_P1;SDS_P2;PMS_P1;PMS_P2;Temp;Humidity;BMP_temperature;BMP_pressure;BME280_temperature;BME280_humidity;BME280_pressure;Samples;Min_cycle;Max_cycle;Signal;HPM_P1;HPM_P2
2021/09/07 00:00:03;;;;;;;16.20;11.07;;;18.70;1.00;;;;;;5077050;28;20469;-71
2021/09/07 00:02:30;;;;;;;15.30;11.90;;;18.60;1.00;;;;;;5076647;28;20461;-72
2021/09/07 00:04:57;;;;;;;15.53;11.27;;;18.60;1.00;;;;;;5076798;28;20458;-72
2021/09/07 00:07:24;;;;;;;13.73;11.10;;;18.60;48.80;;;;;;5076881;28;20458;-72
2021/09/07 00:09:52;;;;;;;12.70;11.00;;;18.50;99.90;;;;;;5076981;28;20454;-72
2021/09/07 00:12:18;;;;;;;15.97;11.70;;;18.50;99.90;;;;;;5076606;28;20454;-72
2021/09/07 00:14:46;;;;;;;15.33;11.37;;;18.50;1.00;;;;;;5076907;28;20483;-72
2021/09/07 00:17:13;;;;;;;12.27;10.00;;;18.50;1.00;;;;;;5076682;28;20910;-72
2021/09/07 00:19:40;;;;;;;12.13;10.00;;;18.40;99.90;;;;;;5076457;28;20763;-72
2021/09/07 00:22:07;;;;;;;17.70;11.40;;;18.40;1.00;;;;;;5076920;28;20466;-72
2021/09/07 00:24:36;;;;;;;14.30;11.13;;;18.40;1.00;;;;;;5076427;28;20782;-72
2021/09/07 00:27:03;;;;;;;17.00;11.23;;;18.40;1.00;;;;;;5076137;28;20551;-71
2021/09/07 00:29:31;;;;;;;13.70;10.60;;;18.40;1.00;;;;;;5076723;28;20461;-72
2021/09/07 00:31:59;;;;;;;16.00;11.23;;;18.40;99.90;;;;;;5076332;28;20494;-72
2021/09/07 00:34:25;;;;;;;15.70;10.67;;;18.40;1.00;;;;;;5076306;28;20551;-72
2021/09/07 00:36:52;;;;;;;18.53;10.40;;;18.40;20.90;;;;;;5075727;28;20886;-72
2021/09/07 00:39:19;;;;;;;13.43;10.80;;;18.40;99.90;;;;;;5076411;28;20519;-72
2021/09/07 00:41:45;;;;;;;13.00;11.43;;;18.40;99.90;;;;;;5076158;28;20985;-72
2021/09/07 00:44:15;;;;;;;12.97;10.10;;;18.40;99.90;;;;;;5076016;28;20545;-72
2021/09/07 00:46:42;;;;;;;15.02;10.65;;;18.40;99.90;;;;;;5075635;28;20447;-72
2021/09/07 00:49:12;;;;;;;14.13;10.30;;;18.40;99.90;;;;;;5076270;28;20200;-72
2021/09/07 00:51:40;;;;;;;13.80;11.20;;;18.50;99.90;;;;;;5076107;28;20451;-72
2021/09/07 00:54:06;;;;;;;12.43;10.43;;;18.50;99.90;;;;;;5075903;28;20916;-72
2021/09/07 00:56:35;;;;;;;12.03;10.70;;;18.50;99.90;;;;;;5075772;28;20477;-72
2021/09/07 00:59:03;;;;;;;15.10;11.07;;;18.40;99.90;;;;;;5075948;28;20469;-72
2021/09/07 01:01:30;;;;;;;14.40;10.50;;;18.40;99.90;;;;;;5075684;28;20458;-72
2021/09/07 01:03:56;;;;;;;16.48;10.50;;;18.40;99.90;;;;;;5075368;28;20450;-72
2021/09/07 01:06:24;;;;;;;11.43;9.98;;;18.30;99.90;;;;;;5075775;28;20207;-71
2021/09/07 01:08:51;;;;;;;13.27;11.60;;;18.30;99.90;;;;;;5075640;28;20204;-72
2021/09/07 01:11:18;;;;;;;12.97;9.93;;;18.30;99.90;;;;;;5075549;28;20979;-72
2021/09/07 01:13:45;;;;;;;12.90;10.67;;;18.30;99.90;;;;;;5075687;28;20565;-72
2021/09/07 01:16:12;;;;;;;13.30;11.20;;;18.30;99.90;;;;;;5075473;28;20462;-72
2021/09/07 01:18:39;;;;;;;13.27;10.93;;;18.30;99.90;;;;;;5075407;28;20454;-72
2021/09/07 01:21:10;;;;;;;16.33;10.87;;;18.20;99.90;;;;;;5075128;28;20455;-71
2021/09/07 01:23:40;;;;;;;15.00;10.13;;;18.20;99.90;;;;;;5075441;28;20443;-71
2021/09/07 01:26:09;;;;;;;12.90;10.93;;;18.20;99.90;;;;;;5075466;28;20509;-71
2021/09/07 01:28:36;;;;;;;12.82;11.40;;;18.10;99.90;;;;;;5075186;28;20458;-71
2021/09/07 01:31:04;;;;;;;15.10;11.17;;;18.10;99.90;;;;;;5075113;28;20654;-71
2021/09/07 01:33:31;;;;;;;14.60;11.68;;;18.10;99.90;;;;;;5075078;28;20478;-72
2021/09/07 01:35:59;;;;;;;17.50;11.03;;;18.10;99.90;;;;;;5074592;28;20257;-72
2021/09/07 01:38:27;;;;;;;16.70;10.77;;;18.10;99.90;;;;;;5075071;28;20800;-71
2021/09/07 01:40:54;;;;;;;13.90;10.67;;;18.00;99.90;;;;;;5074955;28;20866;-71
2021/09/07 01:43:22;;;;;;;16.83;10.87;;;18.00;99.90;;;;;;5074528;28;20454;-71
2021/09/07 01:45:51;;;;;;;14.75;10.90;;;17.90;99.90;;;;;;5075067;28;20785;-72
2021/09/07 01:48:19;;;;;;;16.42;11.93;;;17.90;99.90;;;;;;5074507;28;20660;-72
2021/09/07 01:50:46;;;;;;;16.60;12.23;;;17.90;99.90;;;;;;5074881;28;20208;-71
2021/09/07 01:53:13;;;;;;;14.03;11.50;;;17.90;99.90;;;;;;5074555;28;20478;-72
2021/09/07 01:55:40;;;;;;;13.93;11.53;;;17.90;99.90;;;;;;5075378;28;20462;-71
2021/09/07 01:58:07;;;;;;;12.93;11.53;;;17.80;99.90;;;;;;5075486;28;20463;-72
2021/09/07 02:00:36;;;;;;;16.02;11.13;;;17.80;99.90;;;;;;5074921;28;20458;-71
2021/09/07 02:03:03;;;;;;;16.47;11.73;;;17.70;99.90;;;;;;5074906;28;20204;-72
2021/09/07 02:05:30;;;;;;;15.03;11.67;;;17.70;99.90;;;;;;5074948;28;20457;-72
2021/09/07 02:07:57;;;;;;;16.20;12.27;;;17.60;99.90;;;;;;5074663;28;20548;-72
2021/09/07 02:10:25;;;;;;;19.87;12.23;;;17.60;99.90;;;;;;5074465;28;20461;-71
2021/09/07 02:12:52;;;;;;;16.83;12.07;;;17.50;99.90;;;;;;5074086;28;20458;-71
2021/09/07 02:15:19;;;;;;;17.20;12.30;;;17.40;99.90;;;;;;5074804;28;20527;-71
2021/09/07 02:17:47;;;;;;;13.90;11.50;;;17.40;99.90;;;;;;5074408;28;20459;-72
2021/09/07 02:20:14;;;;;;;17.97;11.43;;;17.30;99.90;;;;;;5074426;28;20466;-72
2021/09/07 02:22:41;;;;;;;17.57;12.43;;;17.30;99.90;;;;;;5074731;28;20756;-72
2021/09/07 02:25:09;;;;;;;15.67;11.53;;;17.30;99.90;;;;;;5074065;28;20922;-71
2021/09/07 02:27:36;;;;;;;18.27;11.80;;;17.20;99.90;;;;;;5074638;28;20454;-72
2021/09/07 02:30:03;;;;;;;17.40;12.90;;;17.20;99.90;;;;;;5074281;28;20458;-72
2021/09/07 02:32:30;;;;;;;15.55;11.75;;;17.20;99.90;;;;;;5074234;28;20540;-72
2021/09/07 02:34:58;;;;;;;17.90;11.77;;;17.10;99.90;;;;;;5074455;28;20220;-72
2021/09/07 02:37:25;;;;;;;19.40;12.80;;;17.10;99.90;;;;;;5074243;28;20919;-72
2021/09/07 02:39:51;;;;;;;18.97;13.33;;;17.10;99.90;;;;;;5075108;28;20458;-72
2021/09/07 02:42:18;;;;;;;15.53;12.13;;;17.10;99.90;;;;;;5074169;28;20442;-72
2021/09/07 02:44:45;;;;;;;16.60;13.07;;;17.10;99.90;;;;;;5074782;28;20454;-71
2021/09/07 02:47:12;;;;;;;17.20;12.00;;;17.10;99.90;;;;;;5074307;28;20523;-72
2021/09/07 02:49:39;;;;;;;14.25;11.82;;;17.00;99.90;;;;;;5074799;28;20931;-72
2021/09/07 02:52:07;;;;;;;16.27;12.47;;;17.00;99.90;;;;;;5074500;28;20226;-71
2021/09/07 02:54:33;;;;;;;16.43;12.60;;;17.00;99.90;;;;;;5073705;28;20478;-71
2021/09/07 02:57:00;;;;;;;15.95;13.40;;;17.00;99.90;;;;;;5074328;28;20459;-72
2021/09/07 02:59:27;;;;;;;17.47;12.63;;;16.90;99.90;;;;;;5075644;28;20263;-72
2021/09/07 03:01:54;;;;;;;17.93;13.17;;;16.90;99.90;;;;;;5078225;28;20462;-72
2021/09/07 03:04:20;;;;;;;20.30;13.00;;;17.00;99.90;;;;;;5078007;28;20450;-71
2021/09/07 03:06:48;;;;;;;16.90;12.30;;;16.90;99.90;;;;;;5077749;28;20465;-71
2021/09/07 03:09:16;;;;;;;17.27;12.40;;;16.90;99.90;;;;;;5077879;28;20550;-71
2021/09/07 03:11:43;;;;;;;18.20;13.70;;;16.90;99.90;;;;;;5077920;28;20660;-72
2021/09/07 03:14:10;;;;;;;20.07;13.83;;;16.90;99.90;;;;;;5077701;28;20474;-72
2021/09/07 03:16:36;;;;;;;17.33;14.30;;;16.80;99.90;;;;;;5077965;28;20793;-72
2021/09/07 03:19:04;;;;;;;19.27;13.30;;;16.80;99.90;;;;;;5077863;28;20462;-71
2021/09/07 03:21:31;;;;;;;18.73;12.97;;;16.70;99.90;;;;;;5077933;28;20822;-71
2021/09/07 03:23:58;;;;;;;19.90;14.00;;;16.70;99.90;;;;;;5077691;28;20450;-72
2021/09/07 03:26:26;;;;;;;18.77;13.87;;;16.60;99.90;;;;;;5077541;28;20469;-72
2021/09/07 03:28:53;;;;;;;19.20;14.30;;;16.50;99.90;;;;;;5077529;28;20461;-71
2021/09/07 03:31:19;;;;;;;21.23;13.93;;;16.50;99.90;;;;;;5077366;28;20465;-71
2021/09/07 03:33:46;;;;;;;20.50;13.70;;;16.40;99.90;;;;;;5077095;28;20477;-71
2021/09/07 03:36:13;;;;;;;19.42;13.95;;;16.40;99.90;;;;;;5076981;28;20454;-71
2021/09/07 03:38:39;;;;;;;20.53;14.13;;;16.40;99.90;;;;;;5077073;28;20200;-71
2021/09/07 03:41:06;;;;;;;23.10;14.47;;;16.40;99.90;;;;;;5077500;28;20509;-72
2021/09/07 03:43:34;;;;;;;20.77;14.00;;;16.40;99.90;;;;;;5077403;28;20790;-72
2021/09/07 03:46:01;;;;;;;22.73;14.63;;;16.30;99.90;;;;;;5077237;28;20262;-71
2021/09/07 03:48:27;;;;;;;18.15;14.85;;;16.40;99.90;;;;;;5077084;28;20497;-72
2021/09/07 03:50:54;;;;;;;22.47;15.77;;;16.30;99.90;;;;;;5076954;28;20207;-71
2021/09/07 03:53:21;;;;;;;20.80;15.13;;;16.30;99.90;;;;;;5077025;28;20454;-72
2021/09/07 03:55:47;;;;;;;24.13;14.70;;;16.30;99.90;;;;;;5077137;28;20465;-72
2021/09/07 03:58:14;;;;;;;20.50;15.17;;;16.20;99.90;;;;;;5077669;28;20569;-72
2021/09/07 04:00:43;;;;;;;26.20;13.37;;;16.20;99.90;;;;;;5077892;28;20450;-72
2021/09/07 04:03:14;;;;;;;16.90;13.90;;;16.20;99.90;;;;;;5077588;28;20481;-72
2021/09/07 04:05:40;;;;;;;24.13;14.57;;;16.10;99.90;;;;;;5077570;28;20781;-72
2021/09/07 04:08:10;;;;;;;19.35;12.95;;;16.10;99.90;;;;;;5077231;28;20930;-72
2021/09/07 04:10:37;;;;;;;17.10;14.17;;;16.00;99.90;;;;;;5077045;28;20200;-72
2021/09/07 04:13:03;;;;;;;19.00;14.70;;;16.00;99.90;;;;;;5077014;28;20830;-73
2021/09/07 04:15:30;;;;;;;22.93;15.63;;;15.90;99.90;;;;;;5076960;28;20489;-73
2021/09/07 04:17:58;;;;;;;20.43;14.67;;;15.90;99.90;;;;;;5077167;28;20488;-73
2021/09/07 04:20:25;;;;;;;17.13;14.10;;;15.80;99.90;;;;;;5076839;28;20481;-73
2021/09/07 04:22:52;;;;;;;22.00;15.37;;;15.80;99.90;;;;;;5077069;28;20768;-71
2021/09/07 04:25:18;;;;;;;15.50;12.77;;;15.70;99.90;;;;;;5077891;28;20455;-73
2021/09/07 04:27:45;;;;;;;19.27;14.40;;;15.70;99.90;;;;;;5078324;28;20523;-72
2021/09/07 04:30:13;;;;;;;18.10;14.50;;;15.70;99.90;;;;;;5076993;28;20466;-72
2021/09/07 04:32:39;;;;;;;20.67;15.37;;;15.60;99.90;;;;;;5078308;28;20469;-72
2021/09/07 04:35:08;;;;;;;22.87;16.10;;;15.60;99.90;;;;;;5078348;28;20599;-72
2021/09/07 04:37:35;;;;;;;19.67;14.47;;;15.60;99.90;;;;;;5078570;28;20450;-73
2021/09/07 04:40:01;;;;;;;20.03;14.90;;;15.60;99.90;;;;;;5077797;28;20465;-72
2021/09/07 04:42:28;;;;;;;22.20;15.73;;;15.60;99.90;;;;;;5079455;28;20511;-73
2021/09/07 04:44:55;;;;;;;25.63;14.88;;;15.60;99.90;;;;;;5080327;28;20450;-73
2021/09/07 04:47:24;;;;;;;19.20;14.10;;;15.60;99.90;;;;;;5092286;28;20286;-72
2021/09/07 04:49:51;;;;;;;26.27;15.50;;;15.60;99.90;;;;;;5084591;28;20443;-73
2021/09/07 04:52:19;;;;;;;21.13;15.30;;;15.70;99.90;;;;;;5078493;28;20458;-73
2021/09/07 04:54:46;;;;;;;21.73;15.33;;;15.70;99.90;;;;;;5078022;28;20622;-72
2021/09/07 04:57:12;;;;;;;20.70;14.93;;;15.70;99.90;;;;;;5076643;28;20458;-72
2021/09/07 04:59:39;;;;;;;20.80;16.80;;;15.70;99.90;;;;;;5076219;28;20789;-73
2021/09/07 05:02:06;;;;;;;22.50;16.33;;;15.80;99.90;;;;;;5076276;28;20877;-72
2021/09/07 05:04:32;;;;;;;22.53;15.13;;;15.80;99.90;;;;;;5076310;28;20450;-73
2021/09/07 05:06:59;;;;;;;22.03;15.77;;;15.90;99.90;;;;;;5078658;28;20454;-71
2021/09/07 05:09:27;;;;;;;22.50;15.50;;;15.90;99.90;;;;;;5078502;28;20466;-70
2021/09/07 05:11:54;;;;;;;21.47;15.27;;;16.00;99.90;;;;;;5078611;28;20787;-71
2021/09/07 05:14:20;;;;;;;22.83;15.00;;;16.00;99.90;;;;;;5078519;28;20497;-71
2021/09/07 05:16:47;;;;;;;24.03;15.13;;;16.10;99.90;;;;;;5078042;28;20458;-71
2021/09/07 05:19:15;;;;;;;19.83;14.30;;;16.10;99.90;;;;;;5078389;28;20454;-71
2021/09/07 05:21:42;;;;;;;21.33;14.10;;;16.10;99.90;;;;;;5077652;28;20239;-71
2021/09/07 05:24:09;;;;;;;24.33;15.90;;;16.20;99.90;;;;;;5077087;28;20455;-71
2021/09/07 05:26:37;;;;;;;18.43;13.77;;;16.30;99.90;;;;;;5076160;28;20881;-71
2021/09/07 05:29:03;;;;;;;19.10;14.00;;;16.30;99.90;;;;;;5075751;28;20461;-71
2021/09/07 05:31:32;;;;;;;17.70;13.50;;;16.40;99.90;;;;;;5075856;28;20953;-71
2021/09/07 05:33:59;;;;;;;20.70;14.80;;;16.40;99.90;;;;;;5075044;28;20490;-71
2021/09/07 05:36:26;;;;;;;25.77;16.17;;;16.50;99.90;;;;;;5075623;28;20477;-71
2021/09/07 05:38:52;;;;;;;19.43;14.00;;;16.50;99.90;;;;;;5075094;28;20903;-71
2021/09/07 05:41:19;;;;;;;17.73;13.93;;;16.60;99.90;;;;;;5075463;28;20482;-71
2021/09/07 05:43:47;;;;;;;21.13;14.80;;;16.60;99.90;;;;;;5075702;28;20511;-71
2021/09/07 05:46:14;;;;;;;18.90;14.30;;;16.70;99.90;;;;;;5076461;28;20454;-71
2021/09/07 05:48:40;;;;;;;19.23;14.57;;;16.70;99.90;;;;;;5076462;28;20464;-71
2021/09/07 05:51:07;;;;;;;21.20;16.20;;;16.80;99.90;;;;;;5076932;28;20462;-71
2021/09/07 05:53:34;;;;;;;23.55;17.58;;;16.80;99.90;;;;;;5077328;28;20465;-71
2021/09/07 05:56:01;;;;;;;21.37;16.23;;;16.90;99.90;;;;;;5077418;28;20312;-71
2021/09/07 05:58:27;;;;;;;22.83;16.73;;;16.90;99.90;;;;;;5078681;28;20575;-72
2021/09/07 06:00:55;;;;;;;17.40;14.95;;;17.00;99.90;;;;;;5076614;28;20458;-71
2021/09/07 06:03:22;;;;;;;23.90;17.47;;;17.00;99.90;;;;;;5076969;28;20269;-71
2021/09/07 06:05:48;;;;;;;24.20;16.50;;;17.10;99.90;;;;;;5075760;28;20447;-71
2021/09/07 06:08:15;;;;;;;20.30;16.03;;;17.10;99.90;;;;;;5077354;28;20484;-72
2021/09/07 06:10:42;;;;;;;22.35;17.30;;;17.00;99.90;;;;;;5076013;28;20489;-72
2021/09/07 06:13:09;;;;;;;22.10;15.50;;;17.10;99.90;;;;;;5075426;28;20644;-72
2021/09/07 06:15:36;;;;;;;22.00;15.20;;;17.20;99.90;;;;;;5075613;28;20478;-72
2021/09/07 06:18:04;;;;;;;21.17;15.70;;;17.30;99.90;;;;;;5076056;28;20486;-72
2021/09/07 06:20:33;;;;;;;20.67;14.47;;;17.30;99.90;;;;;;5076211;28;20454;-72
2021/09/07 06:23:00;;;;;;;39.70;14.97;;;17.40;99.90;;;;;;5075756;28;20488;-72
2021/09/07 06:25:27;;;;;;;21.53;13.60;;;17.40;99.90;;;;;;5075769;28;20512;-72
2021/09/07 06:27:53;;;;;;;21.40;15.00;;;17.50;99.90;;;;;;5075707;28;20454;-70
2021/09/07 06:30:20;;;;;;;18.60;13.60;;;17.50;99.90;;;;;;5076157;28;20453;-71
2021/09/07 06:32:47;;;;;;;18.23;13.00;;;17.50;99.90;;;;;;5076165;28;20454;-71
2021/09/07 06:35:15;;;;;;;22.23;13.20;;;17.60;99.90;;;;;;5078930;28;20488;-70
2021/09/07 06:37:42;;;;;;;21.35;13.23;;;17.60;99.90;;;;;;5081259;28;20454;-71
2021/09/07 06:40:10;;;;;;;14.13;11.57;;;17.60;99.90;;;;;;5081695;28;20481;-71
2021/09/07 06:42:37;;;;;;;18.70;13.73;;;17.60;99.90;;;;;;5080650;28;20457;-72
2021/09/07 06:45:05;;;;;;;14.50;11.73;;;17.60;99.90;;;;;;5081315;28;20936;-72
2021/09/07 06:47:32;;;;;;;17.07;11.67;;;17.70;99.90;;;;;;5082287;28;20454;-72
2021/09/07 06:50:00;;;;;;;18.47;12.30;;;17.60;99.90;;;;;;5080781;28;20934;-72
2021/09/07 06:52:28;;;;;;;16.10;11.57;;;17.60;99.90;;;;;;5080807;28;20934;-72
2021/09/07 06:54:55;;;;;;;16.63;10.90;;;17.60;99.90;;;;;;5079060;28;20489;-70
2021/09/07 06:57:22;;;;;;;19.50;12.80;;;17.70;99.90;;;;;;5079101;28;20200;-71
2021/09/07 06:59:49;;;;;;;15.83;11.73;;;17.70;99.90;;;;;;5079634;28;20477;-72
2021/09/07 07:02:16;;;;;;;11.67;10.00;;;17.80;99.90;;;;;;5079559;28;20473;-71
2021/09/07 07:04:43;;;;;;;19.93;10.70;;;17.90;99.90;;;;;;5079271;28;20458;-71
2021/09/07 07:07:10;;;;;;;13.70;10.70;;;17.90;99.90;;;;;;5079332;28;20476;-71
2021/09/07 07:09:38;;;;;;;16.43;10.80;;;17.90;99.90;;;;;;5079238;28;20462;-72
2021/09/07 07:12:06;;;;;;;18.00;11.53;;;18.00;99.90;;;;;;5080561;28;20468;-72
2021/09/07 07:14:32;;;;;;;14.30;10.23;;;18.00;99.90;;;;;;5079909;28;20454;-72
2021/09/07 07:16:59;;;;;;;13.87;10.10;;;18.10;99.90;;;;;;5080150;28;20469;-72
2021/09/07 07:19:26;;;;;;;13.63;9.60;;;18.10;99.90;;;;;;5080493;28;20458;-71
2021/09/07 07:21:53;;;;;;;15.13;10.90;;;18.10;99.90;;;;;;5078675;28;20226;-71
2021/09/07 07:24:19;;;;;;;12.93;10.27;;;18.20;99.90;;;;;;5079178;28;20458;-72
2021/09/07 07:26:48;;;;;;;15.90;11.07;;;18.30;99.90;;;;;;5079163;28;20210;-72
2021/09/07 07:29:15;;;;;;;17.67;11.03;;;18.30;99.90;;;;;;5081540;28;20450;-71
2021/09/07 07:31:45;;;;;;;14.93;9.90;;;18.40;99.90;;;;;;5080289;28;20500;-71
2021/09/07 07:34:12;;;;;;;20.30;10.23;;;18.40;99.90;;;;;;5081324;28;20466;-71
2021/09/07 07:36:39;;;;;;;12.90;10.10;;;18.40;99.90;;;;;;5080887;28;20993;-71
2021/09/07 07:39:05;;;;;;;13.47;9.30;;;18.40;99.90;;;;;;5079977;28;20472;-71
2021/09/07 07:41:32;;;;;;;10.03;8.30;;;18.40;99.90;;;;;;5078324;28;20498;-71
2021/09/07 07:44:00;;;;;;;11.73;8.60;;;18.40;99.90;;;;;;5078716;28;20454;-71
2021/09/07 07:46:27;;;;;;;10.93;9.07;;;18.40;99.90;;;;;;5079517;28;20492;-71
2021/09/07 07:48:54;;;;;;;12.70;9.40;;;18.50;99.90;;;;;;5079559;28;20458;-72
2021/09/07 07:51:21;;;;;;;10.07;8.57;;;18.50;99.90;;;;;;5078869;28;20519;-72
2021/09/07 07:53:48;;;;;;;11.97;8.10;;;18.50;99.90;;;;;;5078430;28;20469;-72
2021/09/07 07:56:15;;;;;;;11.80;8.00;;;18.60;99.90;;;;;;5078640;28;20477;-72
2021/09/07 07:58:41;;;;;;;11.33;8.63;;;18.60;99.90;;;;;;5078694;28;20450;-72
2021/09/07 08:01:09;;;;;;;9.53;7.97;;;18.70;99.90;;;;;;5078496;28;20812;-72
2021/09/07 08:03:36;;;;;;;9.27;8.00;;;18.70;99.90;;;;;;5078941;28;20463;-72
2021/09/07 08:06:03;;;;;;;10.98;8.15;;;18.80;99.90;;;;;;5078326;28;20256;-71
2021/09/07 08:08:30;;;;;;;10.83;8.20;;;19.00;99.90;;;;;;5078484;28;20214;-72
2021/09/07 08:10:56;;;;;;;10.63;8.43;;;19.20;1.00;;;;;;5079709;28;20458;-72
2021/09/07 08:13:23;;;;;;;10.32;7.20;;;19.20;99.90;;;;;;5079575;28;20203;-72
2021/09/07 08:15:50;;;;;;;13.60;8.40;;;19.30;99.90;;;;;;5079089;28;20235;-72
2021/09/07 08:18:18;;;;;;;14.87;8.13;;;19.50;1.00;;;;;;5081309;28;20645;-72
2021/09/07 08:20:45;;;;;;;11.20;9.43;;;19.60;1.00;;;;;;5079790;28;20454;-72
2021/09/07 08:23:12;;;;;;;11.30;7.93;;;19.70;1.00;;;;;;5081974;28;20488;-71
2021/09/07 08:25:38;;;;;;;10.27;8.68;;;19.70;1.00;;;;;;5080684;28;20457;-72
2021/09/07 08:28:05;;;;;;;12.87;8.90;;;19.70;1.00;;;;;;5081245;28;20204;-71
2021/09/07 08:30:33;;;;;;;13.57;9.30;;;19.80;99.90;;;;;;5082429;28;20454;-72
2021/09/07 08:32:59;;;;;;;11.23;8.87;;;19.90;1.00;;;;;;5080919;28;20486;-72
2021/09/07 08:35:28;;;;;;;12.97;9.83;;;19.90;1.00;;;;;;5080430;28;20532;-72
2021/09/07 08:37:54;;;;;;;15.60;9.77;;;20.00;1.00;;;;;;5080909;28;20454;-72
2021/09/07 08:40:21;;;;;;;13.83;9.70;;;20.00;1.00;;;;;;5081536;28;20482;-71
2021/09/07 08:42:48;;;;;;;14.57;10.30;;;20.10;1.00;;;;;;5081906;28;20454;-71
2021/09/07 08:45:16;;;;;;;12.70;9.20;;;20.10;99.90;;;;;;5079918;28;20462;-71
2021/09/07 08:47:44;;;;;;;12.33;9.87;;;20.20;99.90;;;;;;5080685;28;20469;-71
2021/09/07 08:50:13;;;;;;;10.60;8.90;;;20.20;50.30;;;;;;5080152;28;20466;-71
2021/09/07 08:52:41;;;;;;;16.33;8.87;;;20.30;1.00;;;;;;5080287;28;20472;-71
2021/09/07 08:55:08;;;;;;;11.35;8.95;;;20.30;1.00;;;;;;5080136;28;20469;-71
2021/09/07 08:57:35;;;;;;;13.37;10.13;;;20.30;1.00;;;;;;5078716;28;20214;-71
2021/09/07 09:00:05;;;;;;;12.00;9.07;;;20.40;1.00;;;;;;5079271;28;20450;-71
2021/09/07 09:02:39;;;;;;;13.00;9.07;;;20.40;1.00;;;;;;5079938;28;20464;-71
2021/09/07 09:05:07;;;;;;;13.50;9.57;;;20.40;1.00;;;;;;5079058;28;20766;-71
2021/09/07 09:07:34;;;;;;;11.80;9.03;;;20.50;99.90;;;;;;5078153;28;20484;-72
2021/09/07 09:10:03;;;;;;;10.45;8.90;;;20.50;99.90;;;;;;5079769;28;20458;-73
2021/09/07 09:12:31;;;;;;;13.50;9.57;;;20.50;99.90;;;;;;5078906;28;20211;-72
2021/09/07 09:14:58;;;;;;;16.23;10.97;;;20.60;99.90;;;;;;5078577;28;20864;-72
2021/09/07 09:17:31;;;;;;;11.53;9.40;;;20.60;99.90;;;;;;5079629;28;20469;-72
2021/09/07 09:20:00;;;;;;;12.00;9.13;;;20.60;99.90;;;;;;5078958;28;20481;-72
2021/09/07 09:22:47;;;;;;;11.90;9.07;;;20.70;99.90;;;;;;5079289;28;20961;-72
2021/09/07 09:25:43;;;;;;;13.37;9.00;;;20.70;99.90;;;;;;5080226;28;20442;-72
2021/09/07 09:28:15;;;;;;;13.02;9.63;;;20.80;99.90;;;;;;5082909;28;20646;-72
2021/09/07 09:30:43;;;;;;;12.63;9.33;;;20.90;99.90;;;;;;5080342;28;20200;-72
2021/09/07 09:33:13;;;;;;;10.70;8.60;;;21.00;99.90;;;;;;5080325;28;20964;-73
2021/09/07 09:35:55;;;;;;;10.70;8.93;;;21.10;1.00;;;;;;5080249;28;20488;-72
2021/09/07 09:38:23;;;;;;;11.10;9.23;;;21.20;1.00;;;;;;5083261;28;20438;-72
2021/09/07 09:40:58;;;;;;;10.90;8.60;;;21.20;1.00;;;;;;5081372;28;20482;-72
2021/09/07 09:43:43;;;;;;;11.47;7.90;;;21.20;1.00;;;;;;5078849;28;20422;-72
2021/09/07 09:46:21;;;;;;;10.40;9.10;;;21.30;1.00;;;;;;5077567;28;20945;-72
2021/09/07 09:48:49;;;;;;;13.80;9.10;;;21.20;1.00;;;;;;5078756;28;20942;-72
2021/09/07 09:51:17;;;;;;;10.63;7.70;;;21.30;1.00;;;;;;5079103;28;20484;-72
2021/09/07 09:53:51;;;;;;;13.67;8.90;;;21.40;1.00;;;;;;5078803;28;20477;-72
2021/09/07 09:56:20;;;;;;;13.20;9.00;;;21.40;1.00;;;;;;5075053;28;20473;-72
2021/09/07 09:58:46;;;;;;;16.37;12.30;;;21.60;1.00;;;;;;5077650;28;20484;-73
2021/09/07 10:01:17;;;;;;;9.67;8.57;;;21.60;1.00;;;;;;5075319;28;20454;-73
2021/09/07 10:03:46;;;;;;;8.57;7.00;;;21.60;1.00;;;;;;5076020;28;20450;-73
2021/09/07 10:06:16;;;;;;;12.73;7.80;;;21.50;1.00;;;;;;5078777;28;20461;-73
2021/09/07 10:08:43;;;;;;;11.40;9.27;;;21.60;1.00;;;;;;5080486;28;20465;-74
2021/09/07 10:11:13;;;;;;;9.73;7.87;;;21.60;1.00;;;;;;5079680;28;20809;-73
2021/09/07 10:13:44;;;;;;;10.27;7.80;;;21.70;1.00;;;;;;5081702;28;20453;-73
2021/09/07 10:16:13;;;;;;;12.50;8.83;;;21.70;99.90;;;;;;5082231;28;20474;-73
2021/09/07 10:18:48;;;;;;;11.83;8.13;;;21.90;99.90;;;;;;5082354;28;20490;-72
2021/09/07 10:24:40;;;;;;;9.90;8.00;;;22.10;1.00;;;;;;5075738;28;20759;-72
2021/09/07 10:27:07;;;;;;;12.60;7.20;;;22.10;99.90;;;;;;5076078;28;20465;-72
2021/09/07 10:29:43;;;;;;;9.73;7.17;;;22.10;99.90;;;;;;5074553;28;20196;-72
2021/09/07 10:32:33;;;;;;;11.00;8.50;;;22.20;99.90;;;;;;5074515;28;20537;-72
2021/09/07 10:35:17;;;;;;;7.90;6.90;;;22.30;99.90;;;;;;5074406;28;20471;-72
2021/09/07 10:38:10;;;;;;;9.30;5.57;;;22.40;99.90;;;;;;5074208;28;20574;-72
2021/09/07 10:40:45;;;;;;;6.43;5.70;;;22.40;99.90;;;;;;5073890;28;20485;-72
2021/09/07 10:43:13;;;;;;;7.50;5.90;;;22.40;99.90;;;;;;5074074;28;20192;-76
2021/09/07 10:45:42;;;;;;;7.57;6.17;;;22.40;99.90;;;;;;5074250;28;20796;-76
2021/09/07 10:48:29;;;;;;;7.20;6.03;;;22.50;99.90;;;;;;5073898;28;20485;-77
2021/09/07 10:51:04;;;;;;;7.87;6.10;;;22.50;99.90;;;;;;5074377;28;20450;-77
2021/09/07 10:53:31;;;;;;;9.57;6.37;;;22.60;99.90;;;;;;5074311;28;20452;-77
2021/09/07 10:56:24;;;;;;;8.83;6.40;;;22.50;99.90;;;;;;5074562;28;20486;-77
2021/09/07 10:58:51;;;;;;;6.77;5.90;;;22.40;99.90;;;;;;5074412;28;20481;-77
2021/09/07 11:01:29;;;;;;;9.70;5.90;;;22.30;99.90;;;;;;5074429;28;20454;-77
2021/09/07 11:04:31;;;;;;;5.90;5.30;;;22.30;99.90;;;;;;5074333;28;20454;-77
2021/09/07 11:06:58;;;;;;;7.07;5.60;;;22.30;99.90;;;;;;5074465;28;20449;-77
2021/09/07 11:09:52;;;;;;;11.55;5.90;;;22.30;99.90;;;;;;5074112;28;20461;-77
2021/09/07 11:12:30;;;;;;;8.93;6.20;;;22.30;99.90;;;;;;5074788;28;20204;-77
2021/09/07 11:15:05;;;;;;;7.93;5.47;;;22.50;99.90;;;;;;5073907;28;20910;-77
2021/09/07 11:17:33;;;;;;;7.63;6.40;;;22.60;99.90;;;;;;5074401;28;20507;-77
2021/09/07 11:20:02;;;;;;;7.07;5.50;;;22.80;99.90;;;;;;5075538;28;20465;-77
2021/09/07 11:22:30;;;;;;;9.85;6.40;;;22.90;99.90;;;;;;5077680;28;20986;-78
2021/09/07 11:25:05;;;;;;;7.53;6.20;;;23.20;99.90;;;;;;5078282;28;20588;-78
2021/09/07 11:27:51;;;;;;;9.20;5.97;;;23.40;99.90;;;;;;5079164;28;20514;-79
2021/09/07 11:30:23;;;;;;;6.90;6.20;;;23.40;99.90;;;;;;5077855;28;20948;-77
2021/09/07 11:32:56;;;;;;;7.57;6.77;;;23.50;99.90;;;;;;5077929;28;20458;-77
2021/09/07 11:35:23;;;;;;;9.88;6.47;;;23.40;99.90;;;;;;5077904;28;20453;-78
2021/09/07 11:37:50;;;;;;;8.53;6.30;;;23.40;99.90;;;;;;5077248;28;20315;-76
2021/09/07 11:40:17;;;;;;;8.17;6.67;;;23.50;99.90;;;;;;5077727;28;20497;-77
2021/09/07 11:42:46;;;;;;;7.97;5.13;;;23.70;99.90;;;;;;5077588;28;20454;-76
2021/09/07 11:45:18;;;;;;;8.13;5.93;;;23.90;99.90;;;;;;5077598;28;20553;-76
2021/09/07 11:47:45;;;;;;;8.33;5.93;;;24.10;99.90;;;;;;5076762;28;20449;-77
2021/09/07 11:50:17;;;;;;;9.73;6.60;;;24.40;99.90;;;;;;5077203;28;20469;-77
2021/09/07 11:52:49;;;;;;;7.10;5.60;;;24.50;99.90;;;;;;5077306;28;20438;-77
2021/09/07 11:55:37;;;;;;;7.27;6.30;;;24.40;99.90;;;;;;5077045;28;20458;-76
2021/09/07 11:58:04;;;;;;;8.97;6.67;;;24.40;98.30;;;;;;5077020;28;20478;-76
2021/09/07 12:00:30;;;;;;;9.13;6.27;;;24.40;91.50;;;;;;5076991;28;20458;-76
2021/09/07 12:03:11;;;;;;;9.07;7.00;;;24.80;99.90;;;;;;5077258;28;20469;-76
2021/09/07 12:05:57;;;;;;;7.70;6.83;;;25.80;86.80;;;;;;5076925;28;20523;-76
2021/09/07 12:08:34;;;;;;;7.00;5.63;;;26.40;13.10;;;;;;5079402;28;20450;-76
2021/09/07 12:11:01;;;;;;;10.03;6.40;;;26.40;1.00;;;;;;5078832;28;20442;-77
2021/09/07 12:13:28;;;;;;;9.83;6.63;;;26.10;1.00;;;;;;5077352;28;20929;-76
2021/09/07 12:15:55;;;;;;;8.20;7.30;;;25.70;1.00;;;;;;5076847;28;20459;-76
2021/09/07 12:18:31;;;;;;;8.83;7.43;;;25.30;1.00;;;;;;5077040;28;20503;-77
2021/09/07 12:21:08;;;;;;;8.57;7.77;;;25.00;1.00;;;;;;5076315;28;20446;-77
2021/09/07 12:23:36;;;;;;;8.50;7.63;;;24.60;5.40;;;;;;5076459;28;20529;-76
2021/09/07 12:26:04;;;;;;;12.70;7.30;;;24.40;13.60;;;;;;5076597;28;20465;-77
2021/09/07 12:28:31;;;;;;;8.97;7.90;;;24.40;16.90;;;;;;5076250;28;20458;-77
2021/09/07 12:31:15;;;;;;;8.15;7.35;;;24.50;21.00;;;;;;5075370;28;20457;-77
2021/09/07 12:33:44;;;;;;;8.23;7.43;;;24.60;18.10;;;;;;5076908;28;20203;-77
2021/09/07 12:36:13;;;;;;;7.40;6.37;;;25.00;25.20;;;;;;5076913;28;20214;-77
2021/09/07 12:38:39;;;;;;;7.27;6.40;;;25.70;22.50;;;;;;5076389;28;20933;-77
2021/09/07 12:41:09;;;;;;;7.07;6.33;;;26.50;2.50;;;;;;5077257;28;20479;-77
2021/09/07 12:43:40;;;;;;;9.73;6.87;;;27.30;1.00;;;;;;5078841;28;20473;-76